Main page
METAR-TAF:

METAR-TAF

Airports :

Kajaani Airport

Kajaani, Finland

latitude: 64-17N, longitude: 027-41E, elevation: 143 m

Current weather observation

The report was made 6 minutes ago, at 17:20 UTC
Wind 12 kt from the West
Temperature 16°C
Humidity 59%
Pressure 1006 hPa
Visibility 10 km or more
no clouds below 1500 m and no cumulonimbus

METAR: EFKI 211720Z AUTO 27012KT CAVOK 16/08 Q1006

Time: 20:26 (17:26 UTC)

Forecast

The report was made 24 hours and 29 minutes ago, at 16:57 UTC
Forecast valid from 20 at 16 UTC to 20 at 18 UTC
Wind 15 kt from the West
Visibility 10 km or more
Scattered clouds at a height of 3000 ft
Temporary
from 20 at 16 UTC to 20 at 18 UTC
Wind 18 kt from the West/Northwest with gusts up to 28 kt
Few clouds at a height of 4000 ft, Cumulonimbus.

TAF: EFKI 201657Z 2016/2018 27015KT 9999 SCT030 TEMPO 2016/2018 29018G28KT FEW040CB

Weather observations and forecasts of more than 4000 airports (METAR and TAF reports).

The available stations are represented by yellow and red dots on the map.

Hover mouse over dot to see the name of the station.

Then click to see weather observations and forecasts.

To change the map : click on the green buttons with a black cross to zoom in, on the green button with a dash to zoom out, or on the green arrows for adjacent maps.


METAR-TAF: